WetterOnline ( http://www.wetteronline.de )

Wetter aktuell Schkopau

Aktuelles Wetter: Leipzig/Halle (136m)

6-stündlich | Neueste Meldungen
Ortszeit Temperatur Wetter
Di, 26.03. 7:00 1.9° C leicht bewölkt
Di, 26.03. 1:00 4.2° C bewölkt
Mo, 25.03. 19:00 4.1° C leicht bewölkt
Mo, 25.03. 13:00 6.4° C leichte Schauer
Mo, 25.03. 7:00 3.7° C leichte Schauer
Mo, 25.03. 1:00 1.4° C wolkenlos
So, 24.03. 19:00 7.2° C wolkig
So, 24.03. 13:00 7.0° C bedeckt
Ortszeit Temperatur Wetter
Di, 26.03. 8:30 4.1° C bedeckt
Di, 26.03. 8:20 4.1° C bedeckt
Di, 26.03. 8:10 4.0° C bedeckt
Di, 26.03. 8:00 3.5° C leichter Regen
Di, 26.03. 7:50 3.5° C Sprühregen
Di, 26.03. 7:40 3.6° C bedeckt
Di, 26.03. 7:30 2.5° C bedeckt
Di, 26.03. 7:00 1.9° C leicht bewölkt
Di, 26.03. 6:30 2.7° C bedeckt
Di, 26.03. 6:00 1.8° C bewölkt
Di, 26.03. 5:30 0.9° C wolkenlos
Di, 26.03. 5:00 0.8° C wolkenlos
Ortszeit Relative Feuchte Sichtweite
Di, 26.03. 7:00 94% 12 km
Di, 26.03. 1:00 82% 50 km
Mo, 25.03. 19:00 84% 55 km
Mo, 25.03. 13:00 66% 50 km
Mo, 25.03. 7:00 75% 30 km
Mo, 25.03. 1:00 79% 30 km
So, 24.03. 19:00 79% 15 km
So, 24.03. 13:00 83% 12 km
Ortszeit Relative Feuchte Sichtweite
Di, 26.03. 8:30 80% -
Di, 26.03. 8:20 80% -
Di, 26.03. 8:10 83% -
Di, 26.03. 8:00 86% 20 km
Di, 26.03. 7:50 86% -
Di, 26.03. 7:40 85% -
Di, 26.03. 7:30 93% -
Di, 26.03. 7:00 94% 12 km
Di, 26.03. 6:30 94% -
Di, 26.03. 6:00 96% 10 km
Di, 26.03. 5:30 96% -
Di, 26.03. 5:00 95% 35 km
Ortszeit Niederschlagsmenge Niederschlagsart
Di, 26.03. 7:00 0.0 l/m2 in 12 Std. -
Di, 26.03. 1:00 0.0 l/m2 in 6 Std. -
Mo, 25.03. 19:00 2 l/m2 in 12 Std. Schauer
Mo, 25.03. 13:00 0.1 l/m2 in 6 Std. Regenschauer
Mo, 25.03. 7:00 0.1 l/m2 in 12 Std. -
Mo, 25.03. 1:00 0.0 l/m2 in 6 Std. -
So, 24.03. 19:00 0.0 l/m2 in 12 Std. -
So, 24.03. 13:00 0.0 l/m2 in 6 Std. -
Ortszeit Niederschlagsmenge Niederschlagsart
Di, 26.03. 8:30 0.1 l/m2 in 1 Std. -
Di, 26.03. 8:20 keine Meldung -
Di, 26.03. 8:10 keine Meldung -
Di, 26.03. 8:00 0.1 l/m2 in 1 Std. -
Di, 26.03. 7:50 keine Meldung -
Di, 26.03. 7:40 keine Meldung -
Di, 26.03. 7:30 0.0 l/m2 in 1 Std. -
Di, 26.03. 7:00 0.0 l/m2 in 1 Std. -
Di, 26.03. 6:30 0.0 l/m2 in 1 Std. -
Di, 26.03. 6:00 0.0 l/m2 in 1 Std. -
Di, 26.03. 5:30 0.0 l/m2 in 1 Std. -
Di, 26.03. 5:00 0.0 l/m2 in 1 Std. -
Ortszeit Stärke Spitze Richtung
km/h Bft. km/h Grad Sektor
Di, 26.03. 7:00 17 3 26 260° W
Di, 26.03. 1:00 18 3 25 320° NW
Mo, 25.03. 19:00 6 1 44 310° NW
Mo, 25.03. 13:00 22 4 50 320° NW
Mo, 25.03. 7:00 35 5 44 240° SW
Mo, 25.03. 1:00 14 3 18 240° SW
So, 24.03. 19:00 11 2 18 220° SW
So, 24.03. 13:00 7 2 18 310° NW
Ortszeit Stärke Spitze Richtung
km/h Bft. km/h Grad Sektor
Di, 26.03. 8:30 22 4 40 290° W
Di, 26.03. 8:20 22 4 - 290° W
Di, 26.03. 8:10 18 3 - 280° W
Di, 26.03. 8:00 25 4 43 280° W
Di, 26.03. 7:50 25 4 - 280° W
Di, 26.03. 7:40 22 4 - 280° W
Di, 26.03. 7:30 18 3 22 240° SW
Di, 26.03. 7:00 17 3 26 260° W
Di, 26.03. 6:30 18 3 22 260° W
Di, 26.03. 6:00 15 3 20 270° W
Di, 26.03. 5:30 13 3 19 260° W
Di, 26.03. 5:00 13 3 20 260° W
Ortszeit Untergrenze Bedeckung Gattung
total tief tief mittel hoch
Di, 26.03. 7:00 330 m 5/8 5/8 Sc - -
Di, 26.03. 1:00 570 m 7/8 7/8 Sc - -
Mo, 25.03. 19:00 990 m 5/8 5/8 Cb - -
Mo, 25.03. 13:00 990 m 8/8 7/8 Cb - -
Mo, 25.03. 7:00 1380 m 8/8 7/8 Cb - -
Mo, 25.03. 1:00 - 0/8 0/8 - - -
So, 24.03. 19:00 1200 m 7/8 1/8 Cu As -
So, 24.03. 13:00 780 m 8/8 8/8 Sc - -
Ortszeit Bedeckungsgrad in Achtel und Wolkenuntergrenze
Di, 26.03. 8:30 2(510m) 8(750m)
Di, 26.03. 8:20 2(510m) 8(750m)
Di, 26.03. 8:10 3(510m) 8(750m)
Di, 26.03. 8:00 7(600m) 8(690m) 8
Di, 26.03. 7:50 6(540m) 8(660m)
Di, 26.03. 7:40 8(600m)
Di, 26.03. 7:30 1(360m) 5(540m) 8(1170m)
Di, 26.03. 7:00 3(330m) 3(1200m)
Di, 26.03. 6:30 8(240m) 8(1170m)
Di, 26.03. 6:00 7(180m)
Di, 26.03. 5:30 keine Wolken
Di, 26.03. 5:00 keine Wolken
Ortszeit Luftdruck NN (hPa) Tendenz (hPa in 3 Std.)
Di, 26.03. 7:00 1027 + 0,5
Di, 26.03. 1:00 1025 + 1,9
Mo, 25.03. 19:00 1020 + 3,2
Mo, 25.03. 13:00 1015 + 0,1
Mo, 25.03. 7:00 1015 - 2,4
Mo, 25.03. 1:00 1020 - 1,7
So, 24.03. 19:00 1022 - 1,0
So, 24.03. 13:00 1026 - 1,7
Ortszeit Luftdruck NN (hPa) Tendenz (hPa in 3 Std.)
Di, 26.03. 8:30 1027 + 0,8
Di, 26.03. 8:20 1027 keine Meldung
Di, 26.03. 8:10 1027 keine Meldung
Di, 26.03. 8:00 1027 + 0,7
Di, 26.03. 7:50 1027 keine Meldung
Di, 26.03. 7:40 1027 keine Meldung
Di, 26.03. 7:30 1027 + 0,8
Di, 26.03. 7:00 1027 + 0,5
Di, 26.03. 6:30 1027 + 0,6
Di, 26.03. 6:00 1027 + 0,7
Di, 26.03. 5:30 1026 + 0,4
Di, 26.03. 5:00 1026 + 0,6
Ortszeit Schneehöhe (cm)
Di, 26.03. 7:00 0
Di, 26.03. 1:00 0
Mo, 25.03. 19:00 0
Mo, 25.03. 13:00 0
Mo, 25.03. 7:00 0
Mo, 25.03. 1:00 0
So, 24.03. 19:00 0
So, 24.03. 13:00 0
Ortszeit Schneehöhe (cm)
Di, 26.03. 8:30 -
Di, 26.03. 8:20 -
Di, 26.03. 8:10 -
Di, 26.03. 8:00 -
Di, 26.03. 7:50 -
Di, 26.03. 7:40 -
Di, 26.03. 7:30 -
Di, 26.03. 7:00 0
Di, 26.03. 6:30 -
Di, 26.03. 6:00 -
Di, 26.03. 5:30 -
Di, 26.03. 5:00 -
Link zu dieser Seite / Seite empfehlen

Das Wetter in ...